Time;durP1;ratioP1;P1;durP2;ratioP2;P2;SDS_P1;SDS_P2;PMS_P1;PMS_P2;Temp;Humidity;BMP_temperature;BMP_pressure;BME280_temperature;BME280_humidity;BME280_pressure;Samples;Min_cycle;Max_cycle;Signal;HPM_P1;HPM_P2
2022/11/22 00:00:00;;;;;;;1.4;1.4;;;;;;;6.8;100.0;98920;;;;
2022/11/22 00:01:00;;;;;;;1.4;1.4;;;;;;;6.8;100.0;98920;;;;
2022/11/22 00:02:00;;;;;;;1.4;1.4;;;;;;;6.8;100.0;98920;;;;
2022/11/22 00:03:00;;;;;;;1.4;1.4;;;;;;;6.8;100.0;98920;;;;
2022/11/22 00:04:00;;;;;;;1.4;1.4;;;;;;;6.8;100.0;98920;;;;
2022/11/22 00:05:00;;;;;;;1.7;1.7;;;;;;;7.0;100.0;98930;;;;
2022/11/22 00:06:00;;;;;;;1.7;1.7;;;;;;;7.0;100.0;98930;;;;
2022/11/22 00:07:00;;;;;;;1.7;1.7;;;;;;;7.0;100.0;98940;;;;
2022/11/22 00:08:00;;;;;;;1.7;1.7;;;;;;;7.0;100.0;98940;;;;
2022/11/22 00:09:00;;;;;;;1.7;1.7;;;;;;;7.0;100.0;98930;;;;
2022/11/22 00:10:00;;;;;;;1.7;1.7;;;;;;;7.0;100.0;98930;;;;
2022/11/22 00:11:00;;;;;;;1.7;1.7;;;;;;;6.9;100.0;98940;;;;
2022/11/22 00:12:00;;;;;;;1.7;1.7;;;;;;;6.9;100.0;98940;;;;
2022/11/22 00:13:00;;;;;;;1.7;1.7;;;;;;;6.9;100.0;98930;;;;
2022/11/22 00:14:00;;;;;;;1.7;1.7;;;;;;;6.9;100.0;98930;;;;
2022/11/22 00:15:00;;;;;;;1.7;1.7;;;;;;;6.9;100.0;98920;;;;
2022/11/22 00:16:01;;;;;;;1.7;1.7;;;;;;;6.9;100.0;98920;;;;
2022/11/22 00:17:00;;;;;;;1.7;1.7;;;;;;;6.8;100.0;98930;;;;
2022/11/22 00:18:00;;;;;;;1.7;1.7;;;;;;;6.8;100.0;98930;;;;
2022/11/22 00:19:00;;;;;;;1.7;1.7;;;;;;;6.9;100.0;98930;;;;
2022/11/22 00:20:00;;;;;;;1.7;1.7;;;;;;;6.9;100.0;98930;;;;
2022/11/22 00:21:04;;;;;;;1.7;1.7;;;;;;;6.8;100.0;98930;;;;
2022/11/22 00:22:00;;;;;;;1.7;1.7;;;;;;;6.8;100.0;98930;;;;
2022/11/22 00:23:00;;;;;;;1.7;1.7;;;;;;;6.9;100.0;98930;;;;
2022/11/22 00:24:00;;;;;;;1.7;1.7;;;;;;;6.9;100.0;98930;;;;
2022/11/22 00:25:00;;;;;;;1.5;1.5;;;;;;;6.9;100.0;98930;;;;
2022/11/22 00:26:00;;;;;;;1.5;1.5;;;;;;;6.9;100.0;98930;;;;
2022/11/22 00:27:00;;;;;;;1.5;1.5;;;;;;;6.9;100.0;98930;;;;
2022/11/22 00:28:00;;;;;;;1.5;1.5;;;;;;;6.9;100.0;98930;;;;
2022/11/22 00:29:00;;;;;;;1.5;1.5;;;;;;;6.9;100.0;98930;;;;
2022/11/22 00:30:00;;;;;;;1.5;1.5;;;;;;;6.9;100.0;98930;;;;
2022/11/22 00:31:00;;;;;;;1.5;1.5;;;;;;;7.1;100.0;98930;;;;
2022/11/22 00:32:00;;;;;;;1.5;1.5;;;;;;;7.1;100.0;98930;;;;
2022/11/22 00:33:00;;;;;;;1.5;1.5;;;;;;;7.0;100.0;98930;;;;
2022/11/22 00:34:00;;;;;;;1.5;1.5;;;;;;;7.0;100.0;98930;;;;
2022/11/22 00:35:00;;;;;;;1.5;1.5;;;;;;;7.1;100.0;98930;;;;
2022/11/22 00:36:00;;;;;;;1.5;1.5;;;;;;;7.1;100.0;98930;;;;
2022/11/22 00:37:00;;;;;;;1.5;1.5;;;;;;;7.2;100.0;98920;;;;
2022/11/22 00:38:00;;;;;;;1.5;1.5;;;;;;;7.2;100.0;98920;;;;
2022/11/22 00:39:00;;;;;;;1.5;1.5;;;;;;;7.1;100.0;98920;;;;
2022/11/22 00:40:01;;;;;;;1.5;1.5;;;;;;;7.1;100.0;98920;;;;
2022/11/22 00:41:00;;;;;;;1.5;1.5;;;;;;;7.1;100.0;98920;;;;
2022/11/22 00:42:00;;;;;;;1.5;1.5;;;;;;;7.1;100.0;98920;;;;
2022/11/22 00:43:00;;;;;;;1.5;1.5;;;;;;;7.1;100.0;98920;;;;
2022/11/22 00:44:00;;;;;;;1.5;1.5;;;;;;;7.1;100.0;98920;;;;
2022/11/22 00:45:00;;;;;;;1.7;1.7;;;;;;;7.1;100.0;98920;;;;
2022/11/22 00:46:00;;;;;;;1.7;1.7;;;;;;;7.1;100.0;98920;;;;
2022/11/22 00:47:00;;;;;;;1.7;1.7;;;;;;;7.2;100.0;98920;;;;
2022/11/22 00:48:00;;;;;;;1.7;1.7;;;;;;;7.2;100.0;98920;;;;
2022/11/22 00:49:00;;;;;;;1.7;1.7;;;;;;;7.1;100.0;98920;;;;
2022/11/22 00:50:00;;;;;;;1.7;1.7;;;;;;;7.1;100.0;98920;;;;
2022/11/22 00:51:00;;;;;;;1.7;1.7;;;;;;;7.1;100.0;98930;;;;
2022/11/22 00:52:00;;;;;;;1.7;1.7;;;;;;;7.1;100.0;98930;;;;
2022/11/22 00:53:00;;;;;;;1.7;1.7;;;;;;;7.2;100.0;98930;;;;
2022/11/22 00:54:00;;;;;;;1.7;1.7;;;;;;;7.2;100.0;98930;;;;
2022/11/22 00:55:00;;;;;;;1.7;1.7;;;;;;;7.2;100.0;98930;;;;
2022/11/22 00:56:00;;;;;;;1.7;1.7;;;;;;;7.2;100.0;98930;;;;
2022/11/22 00:57:00;;;;;;;1.7;1.7;;;;;;;7.1;100.0;98930;;;;
2022/11/22 00:58:00;;;;;;;1.7;1.7;;;;;;;7.1;100.0;98930;;;;
2022/11/22 00:59:00;;;;;;;1.7;1.7;;;;;;;7.1;100.0;98940;;;;
2022/11/22 01:00:00;;;;;;;1.7;1.7;;;;;;;7.1;100.0;98940;;;;
2022/11/22 01:01:00;;;;;;;1.7;1.7;;;;;;;7.2;100.0;98930;;;;
2022/11/22 01:02:00;;;;;;;1.7;1.7;;;;;;;7.2;100.0;98930;;;;
2022/11/22 01:03:00;;;;;;;1.7;1.7;;;;;;;7.1;100.0;98940;;;;
2022/11/22 01:04:00;;;;;;;1.7;1.7;;;;;;;7.1;100.0;98940;;;;
2022/11/22 01:05:00;;;;;;;1.6;1.6;;;;;;;7.0;100.0;98930;;;;
2022/11/22 01:06:00;;;;;;;1.6;1.6;;;;;;;7.0;100.0;98930;;;;
2022/11/22 01:07:00;;;;;;;1.6;1.6;;;;;;;7.2;100.0;98930;;;;
2022/11/22 01:08:00;;;;;;;1.6;1.6;;;;;;;7.2;100.0;98930;;;;
2022/11/22 01:09:00;;;;;;;1.6;1.6;;;;;;;7.2;100.0;98920;;;;
2022/11/22 01:10:00;;;;;;;1.6;1.6;;;;;;;7.2;100.0;98920;;;;
2022/11/22 01:11:00;;;;;;;1.6;1.6;;;;;;;7.1;100.0;98920;;;;
2022/11/22 01:12:00;;;;;;;1.6;1.6;;;;;;;7.1;100.0;98920;;;;
2022/11/22 01:13:00;;;;;;;1.6;1.6;;;;;;;7.1;100.0;98920;;;;
2022/11/22 01:14:00;;;;;;;1.6;1.6;;;;;;;7.1;100.0;98920;;;;
2022/11/22 01:15:00;;;;;;;1.6;1.6;;;;;;;7.1;100.0;98920;;;;
2022/11/22 01:16:01;;;;;;;1.6;1.6;;;;;;;7.1;100.0;98920;;;;
2022/11/22 01:17:00;;;;;;;1.6;1.6;;;;;;;7.1;100.0;98920;;;;
2022/11/22 01:18:00;;;;;;;1.6;1.6;;;;;;;7.1;100.0;98920;;;;
2022/11/22 01:19:00;;;;;;;1.6;1.6;;;;;;;7.1;100.0;98920;;;;
2022/11/22 01:20:00;;;;;;;1.6;1.6;;;;;;;7.1;100.0;98920;;;;
2022/11/22 01:21:00;;;;;;;1.6;1.6;;;;;;;7.2;100.0;98920;;;;
2022/11/22 01:22:00;;;;;;;1.6;1.6;;;;;;;7.2;100.0;98920;;;;
2022/11/22 01:23:00;;;;;;;1.6;1.6;;;;;;;7.1;100.0;98930;;;;
2022/11/22 01:24:00;;;;;;;1.6;1.6;;;;;;;7.1;100.0;98930;;;;
2022/11/22 01:25:00;;;;;;;1.3;1.3;;;;;;;7.2;100.0;98920;;;;
2022/11/22 01:26:00;;;;;;;1.3;1.3;;;;;;;7.2;100.0;98920;;;;
2022/11/22 01:27:00;;;;;;;1.3;1.3;;;;;;;7.1;100.0;98930;;;;
2022/11/22 01:28:00;;;;;;;1.3;1.3;;;;;;;7.1;100.0;98930;;;;
2022/11/22 01:29:00;;;;;;;1.3;1.3;;;;;;;7.1;100.0;98920;;;;
2022/11/22 01:30:00;;;;;;;1.3;1.3;;;;;;;7.1;100.0;98920;;;;
2022/11/22 01:31:00;;;;;;;1.3;1.3;;;;;;;7.1;100.0;98930;;;;
2022/11/22 01:32:00;;;;;;;1.3;1.3;;;;;;;7.1;100.0;98930;;;;
2022/11/22 01:33:00;;;;;;;1.3;1.3;;;;;;;7.1;100.0;98930;;;;
2022/11/22 01:34:00;;;;;;;1.3;1.3;;;;;;;7.1;100.0;98930;;;;
2022/11/22 01:35:00;;;;;;;1.3;1.3;;;;;;;7.1;100.0;98930;;;;
2022/11/22 01:36:00;;;;;;;1.3;1.3;;;;;;;7.1;100.0;98930;;;;
2022/11/22 01:37:00;;;;;;;1.3;1.3;;;;;;;7.2;100.0;98920;;;;
2022/11/22 01:38:00;;;;;;;1.3;1.3;;;;;;;7.2;100.0;98920;;;;
2022/11/22 01:39:00;;;;;;;1.3;1.3;;;;;;;7.1;100.0;98920;;;;
2022/11/22 01:40:00;;;;;;;1.3;1.3;;;;;;;7.1;100.0;98920;;;;
2022/11/22 01:41:00;;;;;;;1.3;1.3;;;;;;;7.0;100.0;98930;;;;
2022/11/22 01:42:00;;;;;;;1.3;1.3;;;;;;;7.0;100.0;98930;;;;
2022/11/22 01:43:00;;;;;;;1.3;1.3;;;;;;;6.9;100.0;98930;;;;
2022/11/22 01:44:10;;;;;;;1.4;1.4;;;;;;;6.9;100.0;98930;;;;
2022/11/22 01:45:10;;;;;;;1.4;1.4;;;;;;;6.9;100.0;98940;;;;
2022/11/22 01:46:02;;;;;;;1.4;1.4;;;;;;;6.9;100.0;98940;;;;
2022/11/22 01:47:04;;;;;;;1.4;1.4;;;;;;;6.9;100.0;98940;;;;
2022/11/22 01:48:10;;;;;;;1.4;1.4;;;;;;;6.9;100.0;98940;;;;
2022/11/22 01:49:03;;;;;;;1.4;1.4;;;;;;;6.9;100.0;98940;;;;
2022/11/22 01:50:03;;;;;;;1.4;1.4;;;;;;;6.9;100.0;98940;;;;
2022/11/22 01:51:03;;;;;;;1.4;1.4;;;;;;;6.9;100.0;98950;;;;
2022/11/22 01:52:04;;;;;;;1.4;1.4;;;;;;;6.9;100.0;98950;;;;
2022/11/22 01:53:03;;;;;;;1.4;1.4;;;;;;;6.9;100.0;98950;;;;
2022/11/22 01:54:03;;;;;;;1.4;1.4;;;;;;;6.9;100.0;98950;;;;
2022/11/22 01:55:02;;;;;;;1.4;1.4;;;;;;;6.8;100.0;98940;;;;
2022/11/22 01:56:02;;;;;;;1.4;1.4;;;;;;;6.8;100.0;98940;;;;
2022/11/22 01:57:04;;;;;;;1.4;1.4;;;;;;;6.7;100.0;98950;;;;
2022/11/22 01:58:00;;;;;;;1.4;1.4;;;;;;;6.7;100.0;98950;;;;
2022/11/22 01:59:02;;;;;;;1.4;1.4;;;;;;;6.8;100.0;98950;;;;
2022/11/22 02:00:01;;;;;;;1.4;1.4;;;;;;;6.8;100.0;98950;;;;
2022/11/22 02:01:00;;;;;;;1.4;1.4;;;;;;;6.6;100.0;98950;;;;
2022/11/22 02:02:00;;;;;;;1.4;1.4;;;;;;;6.6;100.0;98950;;;;
2022/11/22 02:03:01;;;;;;;1.4;1.4;;;;;;;6.6;100.0;98950;;;;
2022/11/22 02:04:02;;;;;;;1.5;1.5;;;;;;;6.6;100.0;98950;;;;
2022/11/22 02:05:03;;;;;;;1.5;1.5;;;;;;;6.6;100.0;98950;;;;
2022/11/22 02:06:01;;;;;;;1.5;1.5;;;;;;;6.6;100.0;98950;;;;
2022/11/22 02:07:01;;;;;;;1.5;1.5;;;;;;;6.7;100.0;98960;;;;
2022/11/22 02:08:04;;;;;;;1.5;1.5;;;;;;;6.7;100.0;98960;;;;
2022/11/22 02:09:04;;;;;;;1.5;1.5;;;;;;;6.6;100.0;98960;;;;
2022/11/22 02:10:00;;;;;;;1.5;1.5;;;;;;;6.6;100.0;98960;;;;
2022/11/22 02:11:01;;;;;;;1.5;1.5;;;;;;;6.7;100.0;98950;;;;
2022/11/22 02:12:01;;;;;;;1.5;1.5;;;;;;;6.7;100.0;98950;;;;
2022/11/22 02:13:01;;;;;;;1.5;1.5;;;;;;;6.6;100.0;98950;;;;
2022/11/22 02:14:00;;;;;;;1.5;1.5;;;;;;;6.6;100.0;98950;;;;
2022/11/22 02:15:00;;;;;;;1.5;1.5;;;;;;;6.6;100.0;98950;;;;
2022/11/22 02:16:00;;;;;;;1.5;1.5;;;;;;;6.6;100.0;98950;;;;
2022/11/22 02:17:00;;;;;;;1.5;1.5;;;;;;;6.6;100.0;98950;;;;
2022/11/22 02:18:00;;;;;;;1.5;1.5;;;;;;;6.6;100.0;98950;;;;
2022/11/22 02:19:00;;;;;;;1.5;1.5;;;;;;;6.5;100.0;98960;;;;
2022/11/22 02:20:00;;;;;;;1.5;1.5;;;;;;;6.5;100.0;98960;;;;
2022/11/22 02:21:01;;;;;;;1.5;1.5;;;;;;;6.5;100.0;98960;;;;
2022/11/22 02:22:06;;;;;;;1.5;1.5;;;;;;;6.5;100.0;98960;;;;
2022/11/22 02:23:05;;;;;;;1.5;1.5;;;;;;;6.5;100.0;98960;;;;
2022/11/22 02:24:07;;;;;;;1.5;1.5;;;;;;;6.5;100.0;98960;;;;
2022/11/22 02:25:07;;;;;;;1.5;1.5;;;;;;;6.5;100.0;98950;;;;
2022/11/22 02:26:01;;;;;;;1.5;1.5;;;;;;;6.5;100.0;98950;;;;
2022/11/22 02:27:00;;;;;;;1.5;1.5;;;;;;;6.4;100.0;98960;;;;
2022/11/22 02:28:00;;;;;;;1.5;1.5;;;;;;;6.4;100.0;98960;;;;
2022/11/22 02:29:03;;;;;;;1.5;1.5;;;;;;;6.4;100.0;98960;;;;
2022/11/22 02:30:00;;;;;;;1.5;1.5;;;;;;;6.4;100.0;98960;;;;
2022/11/22 02:31:00;;;;;;;1.5;1.5;;;;;;;6.4;100.0;98960;;;;
2022/11/22 02:32:00;;;;;;;1.5;1.5;;;;;;;6.4;100.0;98960;;;;
2022/11/22 02:33:00;;;;;;;1.5;1.5;;;;;;;6.4;100.0;98960;;;;
2022/11/22 02:34:02;;;;;;;1.5;1.5;;;;;;;6.4;100.0;98960;;;;
2022/11/22 02:35:00;;;;;;;1.5;1.5;;;;;;;6.4;100.0;98960;;;;
2022/11/22 02:36:00;;;;;;;1.5;1.5;;;;;;;6.4;100.0;98960;;;;
2022/11/22 02:37:00;;;;;;;1.5;1.5;;;;;;;6.4;100.0;98960;;;;
2022/11/22 02:38:01;;;;;;;1.5;1.5;;;;;;;6.4;100.0;98960;;;;
2022/11/22 02:39:00;;;;;;;1.5;1.5;;;;;;;6.4;100.0;98960;;;;
2022/11/22 02:40:04;;;;;;;1.5;1.5;;;;;;;6.4;100.0;98960;;;;
2022/11/22 02:41:03;;;;;;;1.5;1.5;;;;;;;6.3;100.0;98960;;;;
2022/11/22 02:42:00;;;;;;;1.5;1.5;;;;;;;6.3;100.0;98960;;;;
2022/11/22 02:43:03;;;;;;;1.5;1.5;;;;;;;6.3;100.0;98960;;;;
2022/11/22 02:44:00;;;;;;;1.5;1.5;;;;;;;6.3;100.0;98960;;;;
2022/11/22 02:45:00;;;;;;;1.5;1.5;;;;;;;6.4;100.0;98970;;;;
2022/11/22 02:46:04;;;;;;;1.5;1.5;;;;;;;6.4;100.0;98970;;;;
2022/11/22 02:47:00;;;;;;;1.5;1.5;;;;;;;6.4;100.0;98970;;;;
2022/11/22 02:48:09;;;;;;;1.5;1.5;;;;;;;6.4;100.0;98970;;;;
2022/11/22 02:49:00;;;;;;;1.5;1.5;;;;;;;6.4;100.0;98970;;;;
2022/11/22 02:50:00;;;;;;;1.5;1.5;;;;;;;6.4;100.0;98970;;;;
2022/11/22 02:51:00;;;;;;;1.5;1.5;;;;;;;6.4;100.0;98970;;;;
2022/11/22 02:52:00;;;;;;;1.5;1.5;;;;;;;6.4;100.0;98970;;;;
2022/11/22 02:53:00;;;;;;;1.5;1.5;;;;;;;6.4;100.0;98980;;;;
2022/11/22 02:54:00;;;;;;;1.5;1.5;;;;;;;6.4;100.0;98980;;;;
2022/11/22 02:55:00;;;;;;;1.5;1.5;;;;;;;6.3;100.0;98980;;;;
2022/11/22 02:56:00;;;;;;;1.5;1.5;;;;;;;6.3;100.0;98980;;;;
2022/11/22 02:57:01;;;;;;;1.5;1.5;;;;;;;6.3;100.0;98980;;;;
2022/11/22 02:58:00;;;;;;;1.5;1.5;;;;;;;6.3;100.0;98980;;;;
2022/11/22 02:59:00;;;;;;;1.5;1.5;;;;;;;6.3;100.0;98970;;;;
2022/11/22 03:00:00;;;;;;;1.5;1.5;;;;;;;6.3;100.0;98970;;;;
2022/11/22 03:01:00;;;;;;;1.5;1.5;;;;;;;6.3;100.0;98980;;;;
2022/11/22 03:02:03;;;;;;;1.5;1.5;;;;;;;6.3;100.0;98980;;;;
2022/11/22 03:03:00;;;;;;;1.5;1.5;;;;;;;6.3;100.0;98980;;;;
2022/11/22 03:04:00;;;;;;;1.5;1.5;;;;;;;6.3;100.0;98980;;;;
2022/11/22 03:05:00;;;;;;;1.5;1.5;;;;;;;6.3;100.0;98980;;;;
2022/11/22 03:06:01;;;;;;;1.5;1.5;;;;;;;6.3;100.0;98980;;;;
2022/11/22 03:07:00;;;;;;;1.5;1.5;;;;;;;6.3;100.0;98980;;;;
2022/11/22 03:08:00;;;;;;;1.5;1.5;;;;;;;6.3;100.0;98980;;;;
2022/11/22 03:09:00;;;;;;;1.5;1.5;;;;;;;6.2;100.0;98980;;;;
2022/11/22 03:10:00;;;;;;;1.5;1.5;;;;;;;6.2;100.0;98980;;;;
2022/11/22 03:11:00;;;;;;;1.5;1.5;;;;;;;6.2;100.0;98980;;;;
2022/11/22 03:12:00;;;;;;;1.5;1.5;;;;;;;6.2;100.0;98980;;;;
2022/11/22 03:13:00;;;;;;;1.5;1.5;;;;;;;6.1;100.0;98980;;;;
2022/11/22 03:14:00;;;;;;;1.5;1.5;;;;;;;6.1;100.0;98980;;;;
2022/11/22 03:15:00;;;;;;;1.5;1.5;;;;;;;6.1;100.0;98990;;;;
2022/11/22 03:16:00;;;;;;;1.5;1.5;;;;;;;6.1;100.0;98990;;;;
2022/11/22 03:17:00;;;;;;;1.5;1.5;;;;;;;6.1;100.0;98990;;;;
2022/11/22 03:18:01;;;;;;;1.5;1.5;;;;;;;6.1;100.0;98990;;;;
2022/11/22 03:19:00;;;;;;;1.5;1.5;;;;;;;6.1;100.0;98990;;;;
2022/11/22 03:20:00;;;;;;;1.5;1.5;;;;;;;6.1;100.0;98990;;;;
2022/11/22 03:21:02;;;;;;;1.5;1.5;;;;;;;6.1;100.0;99000;;;;
2022/11/22 03:22:00;;;;;;;1.5;1.5;;;;;;;6.1;100.0;99000;;;;
2022/11/22 03:23:00;;;;;;;1.5;1.5;;;;;;;6.1;100.0;98990;;;;
2022/11/22 03:24:00;;;;;;;2.1;2.1;;;;;;;6.1;100.0;98990;;;;
2022/11/22 03:25:00;;;;;;;2.1;2.1;;;;;;;6.1;100.0;98990;;;;
2022/11/22 03:26:05;;;;;;;2.1;2.1;;;;;;;6.1;100.0;98990;;;;
2022/11/22 03:27:00;;;;;;;2.1;2.1;;;;;;;6.1;100.0;98990;;;;
2022/11/22 03:28:00;;;;;;;2.1;2.1;;;;;;;6.1;100.0;98990;;;;
2022/11/22 03:29:00;;;;;;;2.1;2.1;;;;;;;6.0;100.0;98990;;;;
2022/11/22 03:30:00;;;;;;;2.1;2.1;;;;;;;6.0;100.0;98990;;;;
2022/11/22 03:31:00;;;;;;;2.1;2.1;;;;;;;6.0;100.0;99000;;;;
2022/11/22 03:32:00;;;;;;;2.1;2.1;;;;;;;6.0;100.0;99000;;;;
2022/11/22 03:33:00;;;;;;;2.1;2.1;;;;;;;6.0;100.0;99000;;;;
2022/11/22 03:34:00;;;;;;;2.1;2.1;;;;;;;6.0;100.0;99000;;;;
2022/11/22 03:35:00;;;;;;;2.1;2.1;;;;;;;5.9;100.0;99000;;;;
2022/11/22 03:36:00;;;;;;;2.1;2.1;;;;;;;5.9;100.0;99000;;;;
2022/11/22 03:37:00;;;;;;;2.1;2.1;;;;;;;5.8;100.0;99000;;;;
2022/11/22 03:38:00;;;;;;;2.1;2.1;;;;;;;5.8;100.0;99000;;;;
2022/11/22 03:39:00;;;;;;;2.1;2.1;;;;;;;5.9;100.0;99010;;;;
2022/11/22 03:40:00;;;;;;;2.1;2.1;;;;;;;5.9;100.0;99010;;;;
2022/11/22 03:41:00;;;;;;;2.1;2.1;;;;;;;5.8;100.0;99010;;;;
2022/11/22 03:42:00;;;;;;;2.1;2.1;;;;;;;5.8;100.0;99010;;;;
2022/11/22 03:43:00;;;;;;;2.1;2.1;;;;;;;5.8;100.0;99000;;;;
2022/11/22 03:44:00;;;;;;;1.8;1.8;;;;;;;5.8;100.0;99000;;;;
2022/11/22 03:45:00;;;;;;;1.8;1.8;;;;;;;5.8;100.0;99000;;;;
2022/11/22 03:46:00;;;;;;;1.8;1.8;;;;;;;5.8;100.0;99000;;;;
2022/11/22 03:47:00;;;;;;;1.8;1.8;;;;;;;5.8;100.0;99010;;;;
2022/11/22 03:48:00;;;;;;;1.8;1.8;;;;;;;5.8;100.0;99010;;;;
2022/11/22 03:49:00;;;;;;;1.8;1.8;;;;;;;5.8;100.0;99010;;;;
2022/11/22 03:50:00;;;;;;;1.8;1.8;;;;;;;5.8;100.0;99010;;;;
2022/11/22 03:51:04;;;;;;;1.8;1.8;;;;;;;5.8;100.0;99010;;;;
2022/11/22 03:52:00;;;;;;;1.8;1.8;;;;;;;5.8;100.0;99010;;;;
2022/11/22 03:53:00;;;;;;;1.8;1.8;;;;;;;5.7;100.0;99010;;;;
2022/11/22 03:54:00;;;;;;;1.8;1.8;;;;;;;5.7;100.0;99010;;;;
2022/11/22 03:55:00;;;;;;;1.8;1.8;;;;;;;5.7;100.0;99010;;;;
2022/11/22 03:56:00;;;;;;;1.8;1.8;;;;;;;5.7;100.0;99010;;;;
2022/11/22 03:57:00;;;;;;;1.8;1.8;;;;;;;5.7;100.0;99000;;;;
2022/11/22 03:58:00;;;;;;;1.8;1.8;;;;;;;5.7;100.0;99000;;;;
2022/11/22 03:59:00;;;;;;;1.8;1.8;;;;;;;5.8;100.0;99010;;;;
2022/11/22 04:00:00;;;;;;;1.8;1.8;;;;;;;5.8;100.0;99010;;;;
2022/11/22 04:01:00;;;;;;;1.8;1.8;;;;;;;5.6;100.0;99010;;;;
2022/11/22 04:02:00;;;;;;;1.8;1.8;;;;;;;5.6;100.0;99010;;;;
2022/11/22 04:03:00;;;;;;;1.8;1.8;;;;;;;5.6;100.0;99010;;;;
2022/11/22 04:04:00;;;;;;;1.8;1.8;;;;;;;5.6;100.0;99010;;;;
2022/11/22 04:05:00;;;;;;;1.8;1.8;;;;;;;5.6;100.0;99010;;;;
2022/11/22 04:06:00;;;;;;;1.8;1.8;;;;;;;5.6;100.0;99010;;;;
2022/11/22 04:07:00;;;;;;;1.8;1.8;;;;;;;5.6;100.0;99010;;;;
2022/11/22 04:08:00;;;;;;;1.8;1.8;;;;;;;5.6;100.0;99010;;;;
2022/11/22 04:09:00;;;;;;;1.8;1.8;;;;;;;5.5;100.0;99020;;;;
2022/11/22 04:10:00;;;;;;;1.8;1.8;;;;;;;5.5;100.0;99020;;;;
2022/11/22 04:11:00;;;;;;;1.8;1.8;;;;;;;5.6;100.0;99020;;;;
2022/11/22 04:12:00;;;;;;;1.8;1.8;;;;;;;5.6;100.0;99020;;;;
2022/11/22 04:13:00;;;;;;;1.8;1.8;;;;;;;5.5;100.0;99020;;;;
2022/11/22 04:15:07;;;;;;;1.8;1.8;;;;;;;5.5;100.0;99020;;;;
2022/11/22 04:16:00;;;;;;;1.8;1.8;;;;;;;5.5;100.0;99020;;;;
2022/11/22 04:17:00;;;;;;;1.8;1.8;;;;;;;5.4;100.0;99020;;;;
2022/11/22 04:18:00;;;;;;;1.8;1.8;;;;;;;5.4;100.0;99020;;;;
2022/11/22 04:19:00;;;;;;;1.8;1.8;;;;;;;5.5;100.0;99020;;;;
2022/11/22 04:22:00;;;;;;;1.8;1.8;;;;;;;5.5;100.0;99030;;;;
2022/11/22 04:23:01;;;;;;;1.8;1.8;;;;;;;5.4;100.0;99030;;;;
2022/11/22 04:26:00;;;;;;;1.9;1.9;;;;;;;5.3;100.0;99030;;;;
2022/11/22 04:27:00;;;;;;;1.9;1.9;;;;;;;5.4;100.0;99020;;;;
2022/11/22 04:28:00;;;;;;;1.9;1.9;;;;;;;5.4;100.0;99020;;;;
2022/11/22 04:29:10;;;;;;;1.9;1.9;;;;;;;5.3;100.0;99020;;;;
2022/11/22 04:30:00;;;;;;;1.9;1.9;;;;;;;5.3;100.0;99020;;;;
2022/11/22 04:33:00;;;;;;;1.9;1.9;;;;;;;5.2;100.0;99030;;;;
2022/11/22 04:34:00;;;;;;;1.9;1.9;;;;;;;5.2;100.0;99030;;;;
2022/11/22 04:35:00;;;;;;;1.9;1.9;;;;;;;5.1;100.0;99030;;;;
2022/11/22 04:36:00;;;;;;;1.9;1.9;;;;;;;5.1;100.0;99030;;;;
2022/11/22 04:37:00;;;;;;;1.9;1.9;;;;;;;5.2;100.0;99030;;;;
2022/11/22 04:38:00;;;;;;;1.9;1.9;;;;;;;5.2;100.0;99030;;;;
2022/11/22 04:39:00;;;;;;;1.9;1.9;;;;;;;5.1;100.0;99040;;;;
2022/11/22 04:40:00;;;;;;;1.9;1.9;;;;;;;5.1;100.0;99040;;;;
2022/11/22 04:41:00;;;;;;;1.9;1.9;;;;;;;5.2;100.0;99040;;;;
2022/11/22 04:45:00;;;;;;;3.1;2.9;;;;;;;5.2;100.0;99040;;;;
2022/11/22 04:46:00;;;;;;;3.1;2.9;;;;;;;5.2;100.0;99040;;;;
2022/11/22 04:47:00;;;;;;;3.1;2.9;;;;;;;5.1;100.0;99050;;;;
2022/11/22 04:48:00;;;;;;;3.1;2.9;;;;;;;5.1;100.0;99050;;;;
2022/11/22 04:49:00;;;;;;;3.1;2.9;;;;;;;5.1;100.0;99050;;;;
2022/11/22 04:50:00;;;;;;;3.1;2.9;;;;;;;5.1;100.0;99050;;;;
2022/11/22 04:53:00;;;;;;;3.1;2.9;;;;;;;5.1;100.0;99050;;;;
2022/11/22 04:54:00;;;;;;;3.1;2.9;;;;;;;5.1;100.0;99050;;;;
2022/11/22 04:55:00;;;;;;;3.1;2.9;;;;;;;5.0;100.0;99050;;;;
2022/11/22 04:56:00;;;;;;;3.1;2.9;;;;;;;5.0;100.0;99050;;;;
2022/11/22 04:57:00;;;;;;;3.1;2.9;;;;;;;4.9;100.0;99050;;;;
2022/11/22 04:58:00;;;;;;;3.1;2.9;;;;;;;4.9;100.0;99050;;;;
2022/11/22 04:59:00;;;;;;;3.1;2.9;;;;;;;4.9;100.0;99050;;;;
2022/11/22 05:00:00;;;;;;;3.1;2.9;;;;;;;4.9;100.0;99050;;;;
2022/11/22 05:01:00;;;;;;;3.1;2.9;;;;;;;4.9;100.0;99060;;;;
2022/11/22 05:02:00;;;;;;;3.1;2.9;;;;;;;4.9;100.0;99060;;;;
2022/11/22 05:03:00;;;;;;;3.1;2.9;;;;;;;4.9;100.0;99060;;;;
2022/11/22 05:04:00;;;;;;;2.1;2.1;;;;;;;4.9;100.0;99060;;;;
2022/11/22 05:05:00;;;;;;;2.1;2.1;;;;;;;4.9;100.0;99060;;;;
2022/11/22 05:06:01;;;;;;;2.1;2.1;;;;;;;4.9;100.0;99060;;;;
2022/11/22 05:07:00;;;;;;;2.1;2.1;;;;;;;4.9;100.0;99060;;;;
2022/11/22 05:08:00;;;;;;;2.1;2.1;;;;;;;4.9;100.0;99060;;;;
2022/11/22 05:09:00;;;;;;;2.1;2.1;;;;;;;4.9;100.0;99050;;;;
2022/11/22 05:10:00;;;;;;;2.1;2.1;;;;;;;4.9;100.0;99050;;;;
2022/11/22 05:11:00;;;;;;;2.1;2.1;;;;;;;4.9;100.0;99050;;;;
2022/11/22 05:12:00;;;;;;;2.1;2.1;;;;;;;4.9;100.0;99050;;;;
2022/11/22 05:13:00;;;;;;;2.1;2.1;;;;;;;4.9;100.0;99050;;;;
2022/11/22 05:14:00;;;;;;;2.1;2.1;;;;;;;4.9;100.0;99050;;;;
2022/11/22 05:15:00;;;;;;;2.1;2.1;;;;;;;4.8;100.0;99050;;;;
2022/11/22 05:16:01;;;;;;;2.1;2.1;;;;;;;4.8;100.0;99050;;;;
2022/11/22 05:17:00;;;;;;;2.1;2.1;;;;;;;4.8;100.0;99060;;;;
2022/11/22 05:18:00;;;;;;;2.1;2.1;;;;;;;4.8;100.0;99060;;;;
2022/11/22 05:19:00;;;;;;;2.1;2.1;;;;;;;4.8;100.0;99060;;;;
2022/11/22 05:20:00;;;;;;;2.1;2.1;;;;;;;4.8;100.0;99060;;;;
2022/11/22 05:21:08;;;;;;;2.1;2.1;;;;;;;4.7;100.0;99060;;;;
2022/11/22 05:22:00;;;;;;;2.1;2.1;;;;;;;4.7;100.0;99060;;;;
2022/11/22 05:24:00;;;;;;;1.7;1.7;;;;;;;4.7;100.0;99060;;;;
2022/11/22 05:25:00;;;;;;;1.7;1.7;;;;;;;4.7;100.0;99060;;;;
2022/11/22 05:26:00;;;;;;;1.7;1.7;;;;;;;4.7;100.0;99060;;;;
2022/11/22 05:27:00;;;;;;;1.7;1.7;;;;;;;4.7;100.0;99070;;;;
2022/11/22 05:28:00;;;;;;;1.7;1.7;;;;;;;4.7;100.0;99070;;;;
2022/11/22 05:29:09;;;;;;;1.7;1.7;;;;;;;4.6;100.0;99070;;;;
2022/11/22 05:30:00;;;;;;;1.7;1.7;;;;;;;4.6;100.0;99070;;;;
2022/11/22 05:31:09;;;;;;;1.7;1.7;;;;;;;4.7;100.0;99060;;;;
2022/11/22 05:32:00;;;;;;;1.7;1.7;;;;;;;4.7;100.0;99060;;;;
2022/11/22 05:33:00;;;;;;;1.7;1.7;;;;;;;4.7;100.0;99060;;;;
2022/11/22 05:34:00;;;;;;;1.7;1.7;;;;;;;4.7;100.0;99060;;;;
2022/11/22 05:35:00;;;;;;;1.7;1.7;;;;;;;4.7;100.0;99060;;;;
2022/11/22 05:36:00;;;;;;;1.7;1.7;;;;;;;4.7;100.0;99060;;;;
2022/11/22 05:37:01;;;;;;;1.7;1.7;;;;;;;4.7;100.0;99060;;;;
2022/11/22 05:38:00;;;;;;;1.7;1.7;;;;;;;4.7;100.0;99060;;;;
2022/11/22 05:39:00;;;;;;;1.7;1.7;;;;;;;4.7;100.0;99060;;;;
2022/11/22 05:40:00;;;;;;;1.7;1.7;;;;;;;4.7;100.0;99060;;;;
2022/11/22 05:41:01;;;;;;;1.7;1.7;;;;;;;4.7;100.0;99060;;;;
2022/11/22 05:42:00;;;;;;;1.7;1.7;;;;;;;4.7;100.0;99060;;;;
2022/11/22 05:43:00;;;;;;;1.7;1.7;;;;;;;4.6;100.0;99060;;;;
2022/11/22 05:44:00;;;;;;;1.9;1.9;;;;;;;4.6;100.0;99060;;;;
2022/11/22 05:45:00;;;;;;;1.9;1.9;;;;;;;4.6;100.0;99060;;;;
2022/11/22 05:46:08;;;;;;;1.9;1.9;;;;;;;4.6;100.0;99060;;;;
2022/11/22 05:47:00;;;;;;;1.9;1.9;;;;;;;4.6;100.0;99060;;;;
2022/11/22 05:48:00;;;;;;;1.9;1.9;;;;;;;4.6;100.0;99060;;;;
2022/11/22 05:49:00;;;;;;;1.9;1.9;;;;;;;4.6;100.0;99050;;;;
2022/11/22 05:50:00;;;;;;;1.9;1.9;;;;;;;4.6;100.0;99050;;;;
2022/11/22 05:51:04;;;;;;;1.9;1.9;;;;;;;4.5;100.0;99060;;;;
2022/11/22 05:52:00;;;;;;;1.9;1.9;;;;;;;4.5;100.0;99060;;;;
2022/11/22 05:53:01;;;;;;;1.9;1.9;;;;;;;4.5;100.0;99060;;;;
2022/11/22 05:54:00;;;;;;;1.9;1.9;;;;;;;4.5;100.0;99060;;;;
2022/11/22 05:55:00;;;;;;;1.9;1.9;;;;;;;4.5;100.0;99060;;;;
2022/11/22 05:56:04;;;;;;;1.9;1.9;;;;;;;4.5;100.0;99060;;;;
2022/11/22 05:57:00;;;;;;;1.9;1.9;;;;;;;4.5;100.0;99060;;;;
2022/11/22 05:58:00;;;;;;;1.9;1.9;;;;;;;4.5;100.0;99060;;;;
2022/11/22 05:59:00;;;;;;;1.9;1.9;;;;;;;4.5;100.0;99060;;;;
2022/11/22 06:00:00;;;;;;;1.9;1.9;;;;;;;4.5;100.0;99060;;;;
2022/11/22 06:01:02;;;;;;;1.9;1.9;;;;;;;4.5;100.0;99060;;;;
2022/11/22 06:02:00;;;;;;;1.9;1.9;;;;;;;4.5;100.0;99060;;;;
2022/11/22 06:03:00;;;;;;;2.2;2.2;;;;;;;4.6;100.0;99060;;;;
2022/11/22 06:04:01;;;;;;;2.2;2.2;;;;;;;4.6;100.0;99060;;;;
2022/11/22 06:05:00;;;;;;;2.2;2.2;;;;;;;4.5;100.0;99060;;;;
2022/11/22 06:06:00;;;;;;;2.2;2.2;;;;;;;4.5;100.0;99060;;;;
2022/11/22 06:07:02;;;;;;;2.2;2.2;;;;;;;4.5;100.0;99060;;;;
2022/11/22 06:08:01;;;;;;;2.2;2.2;;;;;;;4.5;100.0;99060;;;;
2022/11/22 06:09:00;;;;;;;2.2;2.2;;;;;;;4.4;100.0;99070;;;;
2022/11/22 06:10:00;;;;;;;2.2;2.2;;;;;;;4.4;100.0;99070;;;;
2022/11/22 06:11:04;;;;;;;2.2;2.2;;;;;;;4.3;100.0;99070;;;;
2022/11/22 06:12:00;;;;;;;2.2;2.2;;;;;;;4.3;100.0;99070;;;;
2022/11/22 06:13:00;;;;;;;2.2;2.2;;;;;;;4.3;100.0;99070;;;;
2022/11/22 06:14:02;;;;;;;2.2;2.2;;;;;;;4.3;100.0;99070;;;;
2022/11/22 06:15:00;;;;;;;2.2;2.2;;;;;;;4.4;100.0;99070;;;;
2022/11/22 06:16:00;;;;;;;2.2;2.2;;;;;;;4.4;100.0;99070;;;;
2022/11/22 06:17:00;;;;;;;2.2;2.2;;;;;;;4.4;100.0;99060;;;;
2022/11/22 06:18:00;;;;;;;2.2;2.2;;;;;;;4.4;100.0;99060;;;;
2022/11/22 06:19:00;;;;;;;2.2;2.2;;;;;;;4.3;100.0;99060;;;;
2022/11/22 06:20:06;;;;;;;2.2;2.2;;;;;;;4.3;100.0;99060;;;;
2022/11/22 06:21:01;;;;;;;2.2;2.2;;;;;;;4.3;100.0;99060;;;;
2022/11/22 06:22:00;;;;;;;2.2;2.2;;;;;;;4.3;100.0;99060;;;;
2022/11/22 06:23:00;;;;;;;2.2;2.2;;;;;;;4.2;100.0;99060;;;;
2022/11/22 06:24:00;;;;;;;2.2;2.2;;;;;;;4.2;100.0;99060;;;;
2022/11/22 06:25:00;;;;;;;2.2;2.2;;;;;;;4.3;100.0;99060;;;;
2022/11/22 06:26:02;;;;;;;2.2;2.2;;;;;;;4.3;100.0;99060;;;;
2022/11/22 06:27:00;;;;;;;2.2;2.2;;;;;;;4.2;100.0;99060;;;;
2022/11/22 06:28:00;;;;;;;2.2;2.2;;;;;;;4.2;100.0;99060;;;;
2022/11/22 06:29:00;;;;;;;2.2;2.2;;;;;;;4.3;100.0;99070;;;;
2022/11/22 06:30:00;;;;;;;2.2;2.2;;;;;;;4.3;100.0;99070;;;;
2022/11/22 06:31:00;;;;;;;2.2;2.2;;;;;;;4.3;100.0;99070;;;;
2022/11/22 06:32:04;;;;;;;2.2;2.2;;;;;;;4.3;100.0;99070;;;;
2022/11/22 06:33:00;;;;;;;2.2;2.2;;;;;;;4.2;100.0;99070;;;;
2022/11/22 06:34:00;;;;;;;2.2;2.2;;;;;;;4.2;100.0;99070;;;;
2022/11/22 06:35:00;;;;;;;2.2;2.2;;;;;;;4.3;100.0;99070;;;;
2022/11/22 06:36:01;;;;;;;2.2;2.2;;;;;;;4.3;100.0;99070;;;;
2022/11/22 06:37:00;;;;;;;2.2;2.2;;;;;;;4.3;100.0;99060;;;;
2022/11/22 06:38:01;;;;;;;2.2;2.2;;;;;;;4.3;100.0;99060;;;;
2022/11/22 06:39:02;;;;;;;2.2;2.2;;;;;;;4.3;100.0;99060;;;;
2022/11/22 06:40:00;;;;;;;2.2;2.2;;;;;;;4.3;100.0;99060;;;;
2022/11/22 06:41:00;;;;;;;2.2;2.2;;;;;;;4.2;100.0;99060;;;;
2022/11/22 06:42:00;;;;;;;2.2;2.2;;;;;;;4.2;100.0;99060;;;;
2022/11/22 06:43:00;;;;;;;2.0;2.0;;;;;;;4.2;100.0;99060;;;;
2022/11/22 06:44:02;;;;;;;2.0;2.0;;;;;;;4.2;100.0;99060;;;;
2022/11/22 06:45:00;;;;;;;2.0;2.0;;;;;;;4.2;100.0;99060;;;;
2022/11/22 06:46:01;;;;;;;2.0;2.0;;;;;;;4.2;100.0;99060;;;;
2022/11/22 06:47:00;;;;;;;2.0;2.0;;;;;;;4.2;100.0;99070;;;;
2022/11/22 06:48:00;;;;;;;2.0;2.0;;;;;;;4.2;100.0;99070;;;;